Time;durP1;ratioP1;P1;durP2;ratioP2;P2;SDS_P1;SDS_P2;PMS_P1;PMS_P2;Temp;Humidity;BMP_temperature;BMP_pressure;BME280_temperature;BME280_humidity;BME280_pressure;Samples;Min_cycle;Max_cycle;Signal;HPM_P1;HPM_P2
2022/05/11 00:00:46;;;;;;;10.38;8.40;;;;;;;;;;4954533;28;20436;-71
2022/05/11 00:03:12;;;;;;;11.65;8.15;;;;;;;;;;4947689;28;20862;-68
2022/05/11 00:05:38;;;;;;;11.98;8.65;;;;;;;;;;4954887;28;20058;-70
2022/05/11 00:08:04;;;;;;;10.30;8.68;;;;;;;;;;4947035;28;20046;-68
2022/05/11 00:10:30;;;;;;;10.88;8.68;;;;;;;;;;4951910;28;20039;-70
2022/05/11 00:12:57;;;;;;;10.63;8.65;;;;;;;;;;4950953;28;20053;-70
2022/05/11 00:15:23;;;;;;;12.05;8.70;;;;;;;;;;4952525;28;20039;-70
2022/05/11 00:17:49;;;;;;;10.20;8.63;;;;;;;;;;4948187;28;20035;-71
2022/05/11 00:20:16;;;;;;;12.20;8.73;;;;;;;;;;4948412;28;20043;-70
2022/05/11 00:22:42;;;;;;;12.57;8.63;;;;;;;;;;4956091;28;20039;-68
2022/05/11 00:25:10;;;;;;;15.07;8.80;;;;;;;;;;4951862;28;20047;-70
2022/05/11 00:27:35;;;;;;;11.10;8.43;;;;;;;;;;4946099;28;20027;-68
2022/05/11 00:30:02;;;;;;;12.70;8.80;;;;;;;;;;4954256;28;20050;-70
2022/05/11 00:32:28;;;;;;;13.52;8.38;;;;;;;;;;4946261;28;20239;-68
2022/05/11 00:34:53;;;;;;;11.23;7.63;;;;;;;;;;4952960;28;20500;-70
2022/05/11 00:37:19;;;;;;;10.65;8.05;;;;;;;;;;4945449;28;20042;-69
2022/05/11 00:39:45;;;;;;;14.73;7.60;;;;;;;;;;4946018;28;20093;-70
2022/05/11 00:42:11;;;;;;;7.28;6.43;;;;;;;;;;4948089;28;20031;-68
2022/05/11 00:44:37;;;;;;;10.63;7.47;;;;;;;;;;4951386;28;20039;-69
2022/05/11 00:47:16;;;;;;;8.13;6.80;;;;;;;;;;4950555;28;20051;-69
2022/05/11 00:49:48;;;;;;;8.85;7.03;;;;;;;;;;4951102;28;20110;-70
2022/05/11 00:52:34;;;;;;;8.27;7.30;;;;;;;;;;4950470;28;20047;-70
2022/05/11 00:55:17;;;;;;;10.52;6.30;;;;;;;;;;4959827;28;20054;-70
2022/05/11 00:57:55;;;;;;;9.00;7.00;;;;;;;;;;4951913;28;20036;-69
2022/05/11 01:00:22;;;;;;;8.07;7.15;;;;;;;;;;4952602;28;20236;-70
2022/05/11 01:02:53;;;;;;;16.15;8.05;;;;;;;;;;4955887;28;20896;-70
2022/05/11 01:05:18;;;;;;;11.17;7.60;;;;;;;;;;4949217;28;20507;-69
2022/05/11 01:07:44;;;;;;;9.07;7.10;;;;;;;;;;4946269;28;20042;-70
2022/05/11 01:10:10;;;;;;;7.70;6.70;;;;;;;;;;4954465;28;20080;-70
2022/05/11 01:12:39;;;;;;;14.60;9.00;;;;;;;;;;4951540;28;20604;-70
2022/05/11 01:15:06;;;;;;;12.25;7.75;;;;;;;;;;4949247;28;20169;-70
2022/05/11 01:17:33;;;;;;;10.90;7.07;;;;;;;;;;4945933;28;20035;-70
2022/05/11 01:20:00;;;;;;;8.88;7.10;;;;;;;;;;4933651;28;20039;-70
2022/05/11 01:22:45;;;;;;;9.60;7.70;;;;;;;;;;4948200;28;20046;-68
2022/05/11 01:25:12;;;;;;;10.10;6.90;;;;;;;;;;4952632;28;20567;-70
2022/05/11 01:27:40;;;;;;;7.00;6.30;;;;;;;;;;4945980;28;20101;-68
2022/05/11 01:30:12;;;;;;;7.05;5.82;;;;;;;;;;4947605;28;20035;-70
2022/05/11 01:32:39;;;;;;;;;;;;;;;;;;4947015;28;20043;-70
2022/05/11 01:35:07;;;;;;;7.65;5.28;;;;;;;;;;4947674;28;20017;-70
2022/05/11 01:37:38;;;;;;;10.00;5.35;;;;;;;;;;4953773;28;20077;-70
2022/05/11 01:40:04;;;;;;;11.20;6.70;;;;;;;;;;4952377;28;20050;-70
2022/05/11 01:42:29;;;;;;;7.10;6.35;;;;;;;;;;4947599;28;20043;-71
2022/05/11 01:44:55;;;;;;;8.05;6.35;;;;;;;;;;4954124;28;20046;-71
2022/05/11 01:47:20;;;;;;;7.18;6.32;;;;;;;;;;4951896;28;20039;-69
2022/05/11 01:49:45;;;;;;;8.13;6.70;;;;;;;;;;4951106;28;20682;-70
2022/05/11 01:52:11;;;;;;;8.80;6.80;;;;;;;;;;4951459;28;20035;-68
2022/05/11 01:54:36;;;;;;;8.60;6.35;;;;;;;;;;4936087;28;20106;-69
2022/05/11 01:57:02;;;;;;;11.57;7.40;;;;;;;;;;4948747;28;20457;-69
2022/05/11 01:59:27;;;;;;;12.50;6.50;;;;;;;;;;4945655;28;20122;-70
2022/05/11 02:01:54;;;;;;;9.75;7.30;;;;;;;;;;4951734;28;20050;-71
2022/05/11 02:09:47;;;;;;;9.95;6.93;;;;;;;;;;4949472;28;20031;-68
2022/05/11 02:12:13;;;;;;;10.45;7.25;;;;;;;;;;4946590;28;20050;-70
2022/05/11 02:14:39;;;;;;;8.88;6.90;;;;;;;;;;4944156;28;20035;-70
2022/05/11 02:17:05;;;;;;;8.30;6.60;;;;;;;;;;4959380;28;20034;-70
2022/05/11 02:19:30;;;;;;;9.88;7.82;;;;;;;;;;4950267;28;20074;-70
2022/05/11 02:21:55;;;;;;;9.88;6.97;;;;;;;;;;4949241;28;20043;-68
2022/05/11 02:24:21;;;;;;;8.38;7.38;;;;;;;;;;4951694;28;20089;-68
2022/05/11 02:26:47;;;;;;;10.90;7.30;;;;;;;;;;4947026;28;20138;-69
2022/05/11 02:29:13;;;;;;;13.18;7.47;;;;;;;;;;4950061;28;20047;-69
2022/05/11 02:31:38;;;;;;;10.27;5.85;;;;;;;;;;4953470;28;20045;-68
2022/05/11 02:34:06;;;;;;;9.02;7.63;;;;;;;;;;4949203;28;20030;-69
2022/05/11 02:36:33;;;;;;;15.82;7.63;;;;;;;;;;4950761;28;20047;-68
2022/05/11 02:38:58;;;;;;;8.90;7.00;;;;;;;;;;4952160;28;20042;-68
2022/05/11 02:41:24;;;;;;;8.73;6.85;;;;;;;;;;4951216;28;20049;-69
2022/05/11 02:43:50;;;;;;;8.60;6.93;;;;;;;;;;4946843;28;20042;-70
2022/05/11 02:46:15;;;;;;;8.32;6.88;;;;;;;;;;4947487;28;20043;-69
2022/05/11 02:48:41;;;;;;;9.25;6.68;;;;;;;;;;4952465;28;20039;-69
2022/05/11 02:51:07;;;;;;;7.93;6.60;;;;;;;;;;4950285;28;20049;-68
2022/05/11 02:53:33;;;;;;;7.45;6.70;;;;;;;;;;4948785;28;20480;-68
2022/05/11 02:55:59;;;;;;;8.48;6.07;;;;;;;;;;4936750;28;20057;-68
2022/05/11 02:58:27;;;;;;;7.22;5.70;;;;;;;;;;4949041;28;20133;-68
2022/05/11 03:00:57;;;;;;;9.02;6.35;;;;;;;;;;4948205;28;20042;-68
2022/05/11 03:03:22;;;;;;;8.10;6.55;;;;;;;;;;4933583;28;20035;-68
2022/05/11 03:05:52;;;;;;;9.20;6.25;;;;;;;;;;4951111;28;20049;-69
2022/05/11 03:08:17;;;;;;;10.35;6.75;;;;;;;;;;4950247;28;20089;-69
2022/05/11 03:10:44;;;;;;;7.63;6.25;;;;;;;;;;4954735;28;20034;-69
2022/05/11 03:13:10;;;;;;;12.35;6.88;;;;;;;;;;4946735;28;20134;-70
2022/05/11 03:15:36;;;;;;;9.93;6.72;;;;;;;;;;4956677;28;20138;-69
2022/05/11 03:18:03;;;;;;;8.13;6.78;;;;;;;;;;4958007;28;20034;-69
2022/05/11 03:20:28;;;;;;;9.00;6.47;;;;;;;;;;4949734;28;20444;-67
2022/05/11 03:22:55;;;;;;;7.72;6.15;;;;;;;;;;4953562;28;20047;-69
2022/05/11 03:25:21;;;;;;;8.95;6.65;;;;;;;;;;4953177;28;20125;-68
2022/05/11 03:27:46;;;;;;;9.13;7.00;;;;;;;;;;4934610;28;20049;-69
2022/05/11 03:30:12;;;;;;;9.35;6.30;;;;;;;;;;4942085;28;20039;-69
2022/05/11 03:35:22;;;;;;;8.90;6.10;;;;;;;;;;4944757;28;20674;-69
2022/05/11 03:37:48;;;;;;;7.85;6.00;;;;;;;;;;4949129;28;20035;-69
2022/05/11 03:40:13;;;;;;;9.85;6.03;;;;;;;;;;4952763;28;20050;-69
2022/05/11 03:42:40;;;;;;;9.05;5.88;;;;;;;;;;4948166;28;20062;-69
2022/05/11 03:45:25;;;;;;;7.75;5.78;;;;;;;;;;4945850;28;20051;-68
2022/05/11 03:47:51;;;;;;;6.57;5.72;;;;;;;;;;4952280;28;20134;-69
2022/05/11 03:50:20;;;;;;;6.57;5.60;;;;;;;;;;4948715;28;20113;-69
2022/05/11 03:52:46;;;;;;;6.25;5.50;;;;;;;;;;4937715;28;20500;-68
2022/05/11 03:55:12;;;;;;;6.32;5.65;;;;;;;;;;4956498;28;20045;-68
2022/05/11 03:57:39;;;;;;;9.23;5.30;;;;;;;;;;4944173;28;20043;-69
2022/05/11 04:00:08;;;;;;;6.97;5.10;;;;;;;;;;4945027;28;20043;-68
2022/05/11 04:02:38;;;;;;;10.35;6.53;;;;;;;;;;4947223;28;21047;-69
2022/05/11 04:05:05;;;;;;;7.63;5.18;;;;;;;;;;4944351;28;20047;-69
2022/05/11 04:07:32;;;;;;;8.70;4.90;;;;;;;;;;4930005;28;20015;-69
2022/05/11 04:09:58;;;;;;;6.95;4.57;;;;;;;;;;4944902;28;20100;-68
2022/05/11 04:12:26;;;;;;;6.70;5.35;;;;;;;;;;4952899;28;20043;-70
2022/05/11 04:14:52;;;;;;;6.28;5.15;;;;;;;;;;4948820;28;20067;-69
2022/05/11 04:17:18;;;;;;;6.63;4.68;;;;;;;;;;4943206;28;20081;-69
2022/05/11 04:19:43;;;;;;;7.78;5.30;;;;;;;;;;4952222;28;20058;-68
2022/05/11 04:22:09;;;;;;;9.98;5.90;;;;;;;;;;4951800;28;20034;-69
2022/05/11 04:24:35;;;;;;;9.02;5.03;;;;;;;;;;4949567;28;20473;-69
2022/05/11 04:27:01;;;;;;;8.60;5.10;;;;;;;;;;4951863;28;20043;-68
2022/05/11 04:29:26;;;;;;;7.00;5.05;;;;;;;;;;4953348;28;20041;-69
2022/05/11 04:31:53;;;;;;;5.68;5.00;;;;;;;;;;4954884;28;20038;-68
2022/05/11 04:34:19;;;;;;;6.22;5.05;;;;;;;;;;4948896;28;20138;-68
2022/05/11 04:36:44;;;;;;;7.82;4.78;;;;;;;;;;4932614;28;20133;-70
2022/05/11 04:39:10;;;;;;;5.30;4.70;;;;;;;;;;4932196;28;20039;-68
2022/05/11 04:41:35;;;;;;;6.03;5.10;;;;;;;;;;4950203;28;20130;-69
2022/05/11 04:44:01;;;;;;;5.32;4.82;;;;;;;;;;4951905;28;20415;-69
2022/05/11 04:46:26;;;;;;;6.05;5.07;;;;;;;;;;4951961;28;20066;-69
2022/05/11 04:49:16;;;;;;;8.52;5.45;;;;;;;;;;4949908;28;20867;-70
2022/05/11 04:51:37;;;;;;;10.02;6.03;;;;;;;;;;4955290;28;20042;-69
2022/05/11 04:54:04;;;;;;;7.35;4.68;;;;;;;;;;4955078;28;20395;-68
2022/05/11 04:56:32;;;;;;;7.50;5.45;;;;;;;;;;4954836;28;20042;-69
2022/05/11 04:58:58;;;;;;;6.47;5.18;;;;;;;;;;4955870;28;20066;-69
2022/05/11 05:01:25;;;;;;;6.70;5.38;;;;;;;;;;4957138;28;20057;-69
2022/05/11 05:03:50;;;;;;;6.07;4.88;;;;;;;;;;4952999;28;20039;-67
2022/05/11 05:06:16;;;;;;;4.47;4.07;;;;;;;;;;4956603;28;20459;-69
2022/05/11 05:08:41;;;;;;;4.40;3.90;;;;;;;;;;4951790;28;20042;-68
2022/05/11 05:11:07;;;;;;;6.80;4.32;;;;;;;;;;4959569;28;20124;-69
2022/05/11 05:13:32;;;;;;;8.60;4.47;;;;;;;;;;4959636;28;20030;-68
2022/05/11 05:15:58;;;;;;;5.85;3.90;;;;;;;;;;4953545;28;20073;-68
2022/05/11 05:18:24;;;;;;;4.57;4.18;;;;;;;;;;4948568;28;20042;-68
2022/05/11 05:20:49;;;;;;;5.65;4.10;;;;;;;;;;4949269;28;20049;-68
2022/05/11 05:23:15;;;;;;;6.38;4.50;;;;;;;;;;4958051;28;20085;-69
2022/05/11 05:25:40;;;;;;;5.32;4.53;;;;;;;;;;4954770;28;20100;-68
2022/05/11 05:31:09;;;;;;;4.82;4.10;;;;;;;;;;4955872;28;20073;-69
2022/05/11 05:33:39;;;;;;;6.68;3.42;;;;;;;;;;4958567;28;20069;-69
2022/05/11 05:36:05;;;;;;;9.43;4.00;;;;;;;;;;4953389;28;20034;-69
2022/05/11 05:38:30;;;;;;;7.60;3.63;;;;;;;;;;4951707;28;20057;-69
2022/05/11 05:40:56;;;;;;;4.53;3.72;;;;;;;;;;4956432;28;20127;-70
2022/05/11 05:43:22;;;;;;;4.47;3.80;;;;;;;;;;4950404;28;20035;-69
2022/05/11 05:45:50;;;;;;;4.07;3.65;;;;;;;;;;4957628;28;20524;-70
2022/05/11 05:48:15;;;;;;;5.70;3.60;;;;;;;;;;4932520;28;20078;-70
2022/05/11 05:50:41;;;;;;;4.22;3.70;;;;;;;;;;4950972;28;20183;-69
2022/05/11 05:53:10;;;;;;;8.40;3.95;;;;;;;;;;4948236;28;20039;-69
2022/05/11 05:55:36;;;;;;;5.40;3.83;;;;;;;;;;4937311;28;20050;-69
2022/05/11 05:58:02;;;;;;;4.68;3.45;;;;;;;;;;4949141;28;20038;-68
2022/05/11 06:00:28;;;;;;;4.10;3.70;;;;;;;;;;4956157;28;20162;-68
2022/05/11 06:02:55;;;;;;;3.95;3.58;;;;;;;;;;4951055;28;20122;-69
2022/05/11 06:05:20;;;;;;;4.45;3.30;;;;;;;;;;4950527;28;20559;-69
2022/05/11 06:07:46;;;;;;;3.47;3.15;;;;;;;;;;4951428;28;20039;-69
2022/05/11 06:10:11;;;;;;;5.63;3.50;;;;;;;;;;4948873;28;20086;-68
2022/05/11 06:12:37;;;;;;;5.97;3.60;;;;;;;;;;4949164;28;20901;-69
2022/05/11 06:15:03;;;;;;;6.22;3.83;;;;;;;;;;4949808;28;20039;-69
2022/05/11 06:17:29;;;;;;;6.60;4.00;;;;;;;;;;4951523;28;20031;-68
2022/05/11 06:19:55;;;;;;;6.38;3.92;;;;;;;;;;4949995;28;20051;-69
2022/05/11 06:22:21;;;;;;;4.40;3.60;;;;;;;;;;4950023;28;20046;-68
2022/05/11 06:24:47;;;;;;;6.45;3.90;;;;;;;;;;4953890;28;20035;-68
2022/05/11 06:27:19;;;;;;;6.20;4.10;;;;;;;;;;4948797;28;20039;-68
2022/05/11 06:29:55;;;;;;;7.30;3.80;;;;;;;;;;4949198;28;20038;-68
2022/05/11 06:32:24;;;;;;;4.20;3.72;;;;;;;;;;4950752;28;20128;-69
2022/05/11 06:34:51;;;;;;;5.10;3.47;;;;;;;;;;4951598;28;20150;-69
2022/05/11 06:37:17;;;;;;;8.43;4.40;;;;;;;;;;4950586;28;20120;-69
2022/05/11 06:39:42;;;;;;;4.88;4.35;;;;;;;;;;4946744;28;20093;-69
2022/05/11 06:42:10;;;;;;;10.23;4.40;;;;;;;;;;4953130;28;20046;-69
2022/05/11 06:44:36;;;;;;;6.07;4.60;;;;;;;;;;4950578;28;20070;-69
2022/05/11 06:47:02;;;;;;;6.50;3.72;;;;;;;;;;4953718;28;20063;-69
2022/05/11 06:49:27;;;;;;;4.45;3.75;;;;;;;;;;4948680;28;20110;-69
2022/05/11 06:51:53;;;;;;;9.57;3.67;;;;;;;;;;4953689;28;20535;-69
2022/05/11 06:59:47;;;;;;;4.43;3.28;;;;;;;;;;4945295;28;20070;-70
2022/05/11 07:02:13;;;;;;;3.47;3.05;;;;;;;;;;4943126;28;20082;-70
2022/05/11 07:04:38;;;;;;;4.93;3.20;;;;;;;;;;4952205;28;20034;-70
2022/05/11 07:07:05;;;;;;;7.57;3.33;;;;;;;;;;4953298;28;20078;-70
2022/05/11 07:09:33;;;;;;;5.50;3.22;;;;;;;;;;4951380;28;20158;-71
2022/05/11 07:12:20;;;;;;;4.45;3.15;;;;;;;;;;4949852;28;20043;-70
2022/05/11 07:14:53;;;;;;;5.20;3.60;;;;;;;;;;4951049;28;20034;-69
2022/05/11 07:17:27;;;;;;;3.20;2.90;;;;;;;;;;4950265;28;20038;-70
2022/05/11 07:19:54;;;;;;;4.55;2.95;;;;;;;;;;4945079;28;20069;-69
2022/05/11 07:22:19;;;;;;;3.70;3.10;;;;;;;;;;4952898;28;20154;-71
2022/05/11 07:24:45;;;;;;;3.30;3.00;;;;;;;;;;4948745;28;20051;-70
2022/05/11 07:27:10;;;;;;;3.60;3.10;;;;;;;;;;4945369;28;20090;-71
2022/05/11 07:29:36;;;;;;;5.43;3.05;;;;;;;;;;4928667;28;20035;-67
2022/05/11 07:32:01;;;;;;;5.57;2.97;;;;;;;;;;4948953;28;20043;-71
2022/05/11 07:34:28;;;;;;;2.88;2.67;;;;;;;;;;4947962;28;20067;-70
2022/05/11 07:36:54;;;;;;;3.08;2.83;;;;;;;;;;4949526;28;20052;-69
2022/05/11 07:39:23;;;;;;;5.57;2.90;;;;;;;;;;4950070;28;20051;-71
2022/05/11 07:41:49;;;;;;;3.47;3.17;;;;;;;;;;4944710;28;20073;-71
2022/05/11 07:44:16;;;;;;;2.97;2.47;;;;;;;;;;4941706;28;20039;-71
2022/05/11 07:46:44;;;;;;;3.55;3.10;;;;;;;;;;4952566;28;20122;-70
2022/05/11 07:49:11;;;;;;;4.25;2.90;;;;;;;;;;4930850;28;20419;-69
2022/05/11 07:51:37;;;;;;;4.40;2.70;;;;;;;;;;4933298;28;20680;-70
2022/05/11 07:54:04;;;;;;;3.85;2.88;;;;;;;;;;4946937;28;20082;-70
2022/05/11 08:01:58;;;;;;;2.97;2.78;;;;;;;;;;4921958;28;20043;-72
2022/05/11 08:04:24;;;;;;;4.30;2.88;;;;;;;;;;4946201;28;20038;-74
2022/05/11 08:06:49;;;;;;;4.40;2.80;;;;;;;;;;4945337;28;20042;-74
2022/05/11 08:09:15;;;;;;;3.03;2.72;;;;;;;;;;4941797;28;20513;-74
2022/05/11 08:11:41;;;;;;;5.22;2.90;;;;;;;;;;4942262;28;20512;-74
2022/05/11 08:14:07;;;;;;;7.40;2.50;;;;;;;;;;4928998;28;20042;-69
2022/05/11 08:16:33;;;;;;;2.80;2.58;;;;;;;;;;4947550;28;20475;-70
2022/05/11 08:18:58;;;;;;;4.25;2.60;;;;;;;;;;4949098;28;20747;-69
2022/05/11 08:21:25;;;;;;;3.47;2.83;;;;;;;;;;4947229;28;20110;-69
2022/05/11 08:23:50;;;;;;;5.07;3.05;;;;;;;;;;4951032;28;20038;-69
2022/05/11 08:26:16;;;;;;;3.88;2.80;;;;;;;;;;4949944;28;20558;-68
2022/05/11 08:28:42;;;;;;;4.80;2.58;;;;;;;;;;4945490;28;20045;-68
2022/05/11 08:33:51;;;;;;;2.90;2.33;;;;;;;;;;4950310;28;20121;-69
2022/05/11 08:36:20;;;;;;;3.92;2.17;;;;;;;;;;4950545;28;20089;-68
2022/05/11 08:38:48;;;;;;;4.40;2.30;;;;;;;;;;4949352;28;20039;-70
2022/05/11 08:41:34;;;;;;;2.72;2.40;;;;;;;;;;4954043;28;20047;-70
2022/05/11 08:44:11;;;;;;;4.95;2.20;;;;;;;;;;4951308;28;20034;-70
2022/05/11 08:46:47;;;;;;;2.55;2.22;;;;;;;;;;4953144;28;20077;-70
2022/05/11 08:49:29;;;;;;;2.80;2.25;;;;;;;;;;4933427;28;20041;-69
2022/05/11 08:52:01;;;;;;;4.57;2.20;;;;;;;;;;4927343;28;20089;-69
2022/05/11 08:54:32;;;;;;;6.10;1.90;;;;;;;;;;4947158;28;20059;-69
2022/05/11 08:56:59;;;;;;;4.15;2.40;;;;;;;;;;4948019;28;20039;-70
2022/05/11 08:59:30;;;;;;;2.60;2.00;;;;;;;;;;4951496;28;20149;-70
2022/05/11 09:02:01;;;;;;;3.85;1.92;;;;;;;;;;4954694;28;20057;-71
2022/05/11 09:04:40;;;;;;;1.80;1.63;;;;;;;;;;4948238;28;21020;-69
2022/05/11 09:07:08;;;;;;;2.63;1.88;;;;;;;;;;4949035;28;20046;-69
2022/05/11 09:09:33;;;;;;;4.93;2.13;;;;;;;;;;4953574;28;20559;-70
2022/05/11 09:11:59;;;;;;;2.25;2.05;;;;;;;;;;4928561;28;20054;-70
2022/05/11 09:14:39;;;;;;;5.57;2.25;;;;;;;;;;4929379;28;20672;-71
2022/05/11 09:17:06;;;;;;;2.65;2.00;;;;;;;;;;4959230;28;20070;-70
2022/05/11 09:19:34;;;;;;;2.00;1.85;;;;;;;;;;4944343;28;20043;-71
2022/05/11 09:22:17;;;;;;;6.22;2.30;;;;;;;;;;4944348;28;20047;-71
2022/05/11 09:24:52;;;;;;;2.10;1.90;;;;;;;;;;4949871;28;20411;-71
2022/05/11 09:27:27;;;;;;;2.22;2.00;;;;;;;;;;4942524;28;20047;-70
2022/05/11 09:29:59;;;;;;;1.92;1.83;;;;;;;;;;4944381;28;20122;-70
2022/05/11 09:32:32;;;;;;;3.20;1.95;;;;;;;;;;4946084;28;20031;-71
2022/05/11 09:35:21;;;;;;;2.65;1.55;;;;;;;;;;4944636;28;20078;-70
2022/05/11 09:37:59;;;;;;;6.05;1.77;;;;;;;;;;4944588;28;20038;-71
2022/05/11 09:40:25;;;;;;;1.90;1.80;;;;;;;;;;4945848;28;20122;-72
2022/05/11 09:43:03;;;;;;;1.88;1.77;;;;;;;;;;4944322;28;20042;-71
2022/05/11 09:45:49;;;;;;;2.17;1.90;;;;;;;;;;4945693;28;20066;-71
2022/05/11 09:48:23;;;;;;;2.35;2.15;;;;;;;;;;4947665;28;20039;-70
2022/05/11 09:50:56;;;;;;;5.47;2.03;;;;;;;;;;4953580;28;20034;-71
2022/05/11 09:53:34;;;;;;;3.05;1.80;;;;;;;;;;4954567;28;20043;-70
2022/05/11 09:56:18;;;;;;;3.10;1.83;;;;;;;;;;4948289;28;20565;-70
2022/05/11 09:58:45;;;;;;;2.90;1.92;;;;;;;;;;4945735;28;20049;-72
2022/05/11 10:01:12;;;;;;;2.10;1.80;;;;;;;;;;4934116;28;20023;-72
2022/05/11 10:03:59;;;;;;;3.00;1.92;;;;;;;;;;4954068;28;20039;-70
2022/05/11 10:06:26;;;;;;;4.32;1.83;;;;;;;;;;4951016;28;20039;-70
2022/05/11 10:08:52;;;;;;;3.53;1.88;;;;;;;;;;4949440;28;20125;-70
2022/05/11 10:11:23;;;;;;;2.80;1.77;;;;;;;;;;4954356;28;20047;-70
2022/05/11 10:14:01;;;;;;;;;;;;;;;;;;4953651;28;20046;-70
2022/05/11 10:22:56;;;;;;;5.22;1.83;;;;;;;;;;4949650;28;20201;-71
2022/05/11 10:25:35;;;;;;;3.38;1.77;;;;;;;;;;4941046;28;20057;-71
2022/05/11 10:28:23;;;;;;;8.02;1.70;;;;;;;;;;4955833;28;20079;-70
2022/05/11 10:31:10;;;;;;;5.50;1.40;;;;;;;;;;4951353;28;20046;-69
2022/05/11 10:33:48;;;;;;;6.35;1.70;;;;;;;;;;4952934;28;20027;-69
2022/05/11 10:36:36;;;;;;;1.52;1.42;;;;;;;;;;4952825;28;20035;-70
2022/05/11 10:39:10;;;;;;;3.13;1.50;;;;;;;;;;4950945;28;20051;-70
2022/05/11 10:41:48;;;;;;;3.63;1.42;;;;;;;;;;4955559;28;20047;-71
2022/05/11 10:44:22;;;;;;;10.27;1.40;;;;;;;;;;4953207;28;21009;-71
2022/05/11 10:47:16;;;;;;;1.55;1.33;;;;;;;;;;4948814;28;20043;-69
2022/05/11 10:49:59;;;;;;;3.17;1.50;;;;;;;;;;4951071;28;20069;-71
2022/05/11 10:52:29;;;;;;;1.60;1.50;;;;;;;;;;4952574;28;20066;-71
2022/05/11 10:55:24;;;;;;;11.55;1.60;;;;;;;;;;4949711;28;20047;-71
2022/05/11 10:58:09;;;;;;;3.92;1.30;;;;;;;;;;4957372;28;20039;-72
2022/05/11 11:00:42;;;;;;;2.13;1.40;;;;;;;;;;4952904;28;20524;-70
2022/05/11 11:03:29;;;;;;;1.52;1.42;;;;;;;;;;4953434;28;20125;-71
2022/05/11 11:09:03;;;;;;;2.17;1.50;;;;;;;;;;4914361;28;20133;-71
2022/05/11 11:11:41;;;;;;;4.72;1.40;;;;;;;;;;4953920;28;20038;-70
2022/05/11 11:14:09;;;;;;;6.60;1.75;;;;;;;;;;4931091;28;20047;-72
2022/05/11 11:16:38;;;;;;;5.53;1.55;;;;;;;;;;4927585;28;20448;-71
2022/05/11 11:19:05;;;;;;;2.65;1.50;;;;;;;;;;4948477;28;20039;-73
2022/05/11 11:21:31;;;;;;;1.52;1.38;;;;;;;;;;4942861;28;20041;-72
2022/05/11 11:24:25;;;;;;;1.27;1.17;;;;;;;;;;4950926;28;20579;-71
2022/05/11 11:26:50;;;;;;;1.35;1.25;;;;;;;;;;4939601;28;20500;-72
2022/05/11 11:29:19;;;;;;;4.00;1.63;;;;;;;;;;4947980;28;20099;-70
2022/05/11 11:31:57;;;;;;;4.50;1.40;;;;;;;;;;4935126;28;20038;-71
2022/05/11 11:34:25;;;;;;;3.90;1.60;;;;;;;;;;4946733;28;20730;-72
2022/05/11 11:36:52;;;;;;;1.73;1.50;;;;;;;;;;4951622;28;20039;-73
2022/05/11 11:39:56;;;;;;;2.22;1.40;;;;;;;;;;4953241;28;20534;-72
2022/05/11 11:42:29;;;;;;;2.35;1.50;;;;;;;;;;4945065;28;20500;-71
2022/05/11 11:44:55;;;;;;;4.20;1.38;;;;;;;;;;4948040;28;20035;-73
2022/05/11 11:47:27;;;;;;;2.25;1.33;;;;;;;;;;4945995;28;20058;-71
2022/05/11 11:49:54;;;;;;;4.22;1.75;;;;;;;;;;4949941;28;20031;-71
2022/05/11 11:52:36;;;;;;;7.15;1.30;;;;;;;;;;4943720;28;20050;-72
2022/05/11 11:55:08;;;;;;;1.98;1.23;;;;;;;;;;4950516;28;20039;-71
2022/05/11 11:57:34;;;;;;;4.47;1.63;;;;;;;;;;4942883;28;20039;-71
2022/05/11 12:00:25;;;;;;;2.58;1.42;;;;;;;;;;4954152;28;20050;-72
2022/05/11 12:02:52;;;;;;;1.50;1.35;;;;;;;;;;4952243;28;20035;-72
2022/05/11 12:05:40;;;;;;;1.25;1.20;;;;;;;;;;4929331;28;20057;-71
2022/05/11 12:16:59;;;;;;;8.00;1.50;;;;;;;;;;4953200;28;21019;-72
2022/05/11 12:19:28;;;;;;;3.88;1.27;;;;;;;;;;4947132;28;20122;-72
2022/05/11 12:21:56;;;;;;;2.97;1.40;;;;;;;;;;4953687;28;20049;-72
2022/05/11 12:24:27;;;;;;;2.00;1.50;;;;;;;;;;4956032;28;20039;-71
2022/05/11 12:27:01;;;;;;;;;;;;;;;;;;4940932;28;20454;-71
2022/05/11 12:32:21;;;;;;;1.67;1.58;;;;;;;;;;4954434;28;20077;-71
2022/05/11 12:34:46;;;;;;;1.63;1.30;;;;;;;;;;4947068;28;20500;-72
2022/05/11 12:37:30;;;;;;;6.28;1.50;;;;;;;;;;4945768;28;20122;-71
2022/05/11 12:40:15;;;;;;;3.60;1.73;;;;;;;;;;4945908;28;20492;-73
2022/05/11 12:42:57;;;;;;;4.55;1.50;;;;;;;;;;4950890;28;20078;-73
2022/05/11 12:45:33;;;;;;;1.95;1.65;;;;;;;;;;4952289;28;20035;-73
2022/05/11 12:47:59;;;;;;;4.45;1.42;;;;;;;;;;4947294;28;20111;-72
2022/05/11 12:50:33;;;;;;;3.00;1.10;;;;;;;;;;4956375;28;20171;-71
2022/05/11 12:53:17;;;;;;;3.95;1.58;;;;;;;;;;4954624;28;20087;-70
2022/05/11 12:55:46;;;;;;;6.28;1.20;;;;;;;;;;4951636;28;20039;-72
2022/05/11 12:58:19;;;;;;;2.25;1.42;;;;;;;;;;4946474;28;20062;-70
2022/05/11 13:00:45;;;;;;;2.10;1.63;;;;;;;;;;4951654;28;20105;-73
2022/05/11 13:03:30;;;;;;;3.72;1.23;;;;;;;;;;4950844;28;20065;-69
2022/05/11 13:06:08;;;;;;;2.05;1.15;;;;;;;;;;4927410;28;20082;-67
2022/05/11 13:08:42;;;;;;;6.95;1.35;;;;;;;;;;4949290;28;20122;-68
2022/05/11 13:11:09;;;;;;;1.20;1.10;;;;;;;;;;4948038;28;20027;-68
2022/05/11 13:13:35;;;;;;;4.72;1.40;;;;;;;;;;4950588;28;20039;-68
2022/05/11 13:16:22;;;;;;;3.97;1.00;;;;;;;;;;4951573;28;20047;-68
2022/05/11 13:18:48;;;;;;;5.13;1.38;;;;;;;;;;4951345;28;20031;-68
2022/05/11 13:21:26;;;;;;;3.80;1.10;;;;;;;;;;4950072;28;20126;-68
2022/05/11 13:23:52;;;;;;;1.70;0.80;;;;;;;;;;4951385;28;20045;-67
2022/05/11 13:26:35;;;;;;;1.88;1.08;;;;;;;;;;4950052;28;20042;-68
2022/05/11 13:29:21;;;;;;;4.95;1.20;;;;;;;;;;4944163;28;20045;-68
2022/05/11 13:32:00;;;;;;;1.35;1.08;;;;;;;;;;4952339;28;20035;-68
2022/05/11 13:34:35;;;;;;;1.55;1.10;;;;;;;;;;4955417;28;20464;-68
2022/05/11 13:37:01;;;;;;;1.35;1.17;;;;;;;;;;4949740;28;20027;-68
2022/05/11 13:39:39;;;;;;;3.10;1.30;;;;;;;;;;4952094;28;20098;-67
2022/05/11 13:42:34;;;;;;;2.33;1.50;;;;;;;;;;4953298;28;20423;-68
2022/05/11 13:45:06;;;;;;;5.07;1.20;;;;;;;;;;4933946;28;20500;-68
2022/05/11 13:50:27;;;;;;;2.88;1.20;;;;;;;;;;4952791;28;20063;-68
2022/05/11 13:52:56;;;;;;;;;;;;;;;;;;4951429;28;20038;-68
2022/05/11 13:55:57;;;;;;;2.17;1.17;;;;;;;;;;4951034;28;19968;-69
2022/05/11 13:58:25;;;;;;;4.33;1.40;;;;;;;;;;4944297;28;20490;-69
2022/05/11 14:00:54;;;;;;;4.40;1.17;;;;;;;;;;4952083;28;20771;-69
2022/05/11 14:03:23;;;;;;;6.78;1.20;;;;;;;;;;4948943;28;20046;-69
2022/05/11 14:05:48;;;;;;;1.42;1.02;;;;;;;;;;4953941;28;20097;-69
2022/05/11 14:08:14;;;;;;;1.20;1.10;;;;;;;;;;4946099;28;20492;-68
2022/05/11 14:10:40;;;;;;;4.80;1.10;;;;;;;;;;4960534;28;20049;-68
2022/05/11 14:13:05;;;;;;;4.85;1.10;;;;;;;;;;4947597;28;20472;-68
2022/05/11 14:15:31;;;;;;;4.65;1.30;;;;;;;;;;4956423;28;20073;-68
2022/05/11 14:17:57;;;;;;;7.85;1.15;;;;;;;;;;4952741;28;20411;-68
2022/05/11 14:20:25;;;;;;;5.55;1.48;;;;;;;;;;4928115;28;20487;-68
2022/05/11 14:22:51;;;;;;;2.03;1.20;;;;;;;;;;4954681;28;20037;-68
2022/05/11 14:25:18;;;;;;;3.25;1.52;;;;;;;;;;4943180;28;20031;-68
2022/05/11 14:27:44;;;;;;;1.45;1.00;;;;;;;;;;4947347;28;20039;-68
2022/05/11 14:30:12;;;;;;;2.53;1.27;;;;;;;;;;4946110;28;20039;-69
2022/05/11 14:32:41;;;;;;;3.72;1.27;;;;;;;;;;4952859;28;20117;-69
2022/05/11 14:35:10;;;;;;;3.05;1.40;;;;;;;;;;4954622;28;20041;-68
2022/05/11 14:37:37;;;;;;;1.77;1.13;;;;;;;;;;4946953;28;20373;-68
2022/05/11 14:40:04;;;;;;;3.25;1.20;;;;;;;;;;4948907;28;20061;-68
2022/05/11 14:42:33;;;;;;;3.42;1.45;;;;;;;;;;4950744;28;20031;-69
2022/05/11 14:44:59;;;;;;;3.55;1.50;;;;;;;;;;4953141;28;20063;-69
2022/05/11 14:47:25;;;;;;;1.92;1.30;;;;;;;;;;4946150;28;20135;-70
2022/05/11 14:49:51;;;;;;;5.70;1.30;;;;;;;;;;4943603;28;20043;-70
2022/05/11 14:52:18;;;;;;;10.43;1.33;;;;;;;;;;4943290;28;20050;-70
2022/05/11 14:54:44;;;;;;;3.55;1.20;;;;;;;;;;4946777;28;20034;-69
2022/05/11 15:02:40;;;;;;;2.88;1.40;;;;;;;;;;4945746;28;21054;-68
2022/05/11 15:05:07;;;;;;;1.83;1.38;;;;;;;;;;4950815;28;20035;-70
2022/05/11 15:07:34;;;;;;;2.95;1.33;;;;;;;;;;4951436;28;20093;-69
2022/05/11 15:10:00;;;;;;;1.98;1.00;;;;;;;;;;4950221;28;20149;-69
2022/05/11 15:15:09;;;;;;;3.90;1.27;;;;;;;;;;4942520;28;20563;-70
2022/05/11 15:17:36;;;;;;;4.63;1.73;;;;;;;;;;4951317;28;20042;-70
2022/05/11 15:20:03;;;;;;;1.42;1.20;;;;;;;;;;4949080;28;20043;-69
2022/05/11 15:22:30;;;;;;;6.45;1.50;;;;;;;;;;4944462;28;20399;-69
2022/05/11 15:24:56;;;;;;;2.50;1.40;;;;;;;;;;4948580;28;21020;-69
2022/05/11 15:27:21;;;;;;;1.80;1.40;;;;;;;;;;4949408;28;20031;-68
2022/05/11 15:29:47;;;;;;;3.30;1.30;;;;;;;;;;4943299;28;20031;-68
2022/05/11 15:32:20;;;;;;;3.08;1.50;;;;;;;;;;4948986;28;20125;-68
2022/05/11 15:34:45;;;;;;;2.13;1.45;;;;;;;;;;4943363;28;20035;-68
2022/05/11 15:37:11;;;;;;;3.90;1.50;;;;;;;;;;4948528;28;20110;-68
2022/05/11 15:39:36;;;;;;;5.05;1.48;;;;;;;;;;4952252;28;20293;-68
2022/05/11 15:42:02;;;;;;;4.78;1.35;;;;;;;;;;4947045;28;20039;-68
2022/05/11 15:44:28;;;;;;;3.88;1.48;;;;;;;;;;4948210;28;20472;-68
2022/05/11 15:46:53;;;;;;;3.53;1.60;;;;;;;;;;4946878;28;20035;-68
2022/05/11 15:49:19;;;;;;;4.57;1.55;;;;;;;;;;4947551;28;20102;-68
2022/05/11 15:51:45;;;;;;;2.47;1.58;;;;;;;;;;4954894;28;20392;-68
2022/05/11 15:54:14;;;;;;;4.28;1.95;;;;;;;;;;4932562;28;20121;-68